Time;durP1;ratioP1;P1;durP2;ratioP2;P2;SDS_P1;SDS_P2;PMS_P1;PMS_P2;Temp;Humidity;BMP_temperature;BMP_pressure;BME280_temperature;BME280_humidity;BME280_pressure;Samples;Min_cycle;Max_cycle;Signal;HPM_P1;HPM_P2
2023/04/18 00:02:16;;;;;;;8.23;5.97;;;;;;;11.44;56.73;97681.91;4910217;28;20286;-85
2023/04/18 00:04:45;;;;;;;7.18;4.93;;;;;;;11.30;57.36;97666.84;4918805;28;20528;-85
2023/04/18 00:07:13;;;;;;;8.73;5.20;;;;;;;11.25;56.99;97662.31;4905305;28;20332;-84
2023/04/18 00:09:39;;;;;;;6.90;5.68;;;;;;;11.34;56.94;97689.56;4937321;28;20178;-85
2023/04/18 00:12:05;;;;;;;7.32;5.43;;;;;;;11.29;56.98;97688.72;4937740;28;20142;-85
2023/04/18 00:14:32;;;;;;;7.82;5.50;;;;;;;11.12;57.30;97657.41;4921333;28;20276;-84
2023/04/18 00:16:58;;;;;;;6.82;5.68;;;;;;;11.18;57.39;97674.72;4914103;28;20190;-85
2023/04/18 00:19:23;;;;;;;7.88;5.40;;;;;;;11.25;57.39;97683.97;4954436;28;20233;-83
2023/04/18 00:21:51;;;;;;;6.97;5.65;;;;;;;11.13;57.40;97675.41;4937120;28;20308;-85
2023/04/18 00:24:17;;;;;;;6.82;5.60;;;;;;;11.02;57.48;97665.88;4924174;28;20331;-86
2023/04/18 00:26:42;;;;;;;7.10;5.47;;;;;;;11.02;57.46;97679.69;4936773;28;20544;-85
2023/04/18 00:29:08;;;;;;;7.68;5.45;;;;;;;10.98;57.59;97673.34;4902867;28;20174;-85
2023/04/18 00:31:33;;;;;;;7.05;5.32;;;;;;;10.90;58.01;97676.34;4953606;28;20197;-85
2023/04/18 00:33:59;;;;;;;6.05;5.30;;;;;;;10.87;58.76;97684.63;4937431;28;20045;-85
2023/04/18 00:36:25;;;;;;;5.80;5.07;;;;;;;10.78;58.40;97686.81;4934923;28;20320;-85
2023/04/18 00:38:51;;;;;;;7.78;6.20;;;;;;;10.67;58.63;97675.38;4922226;28;20330;-85
2023/04/18 00:41:17;;;;;;;7.30;5.55;;;;;;;10.58;59.19;97668.97;4936103;28;20381;-85
2023/04/18 00:43:42;;;;;;;8.75;6.43;;;;;;;10.57;59.28;97677.81;4920340;28;20269;-84
2023/04/18 00:46:09;;;;;;;8.18;5.47;;;;;;;10.47;59.52;97675.03;4935638;28;20355;-85
2023/04/18 00:48:35;;;;;;;7.15;5.68;;;;;;;10.26;60.04;97651.19;4938701;28;20090;-85
2023/04/18 00:51:00;;;;;;;8.65;5.70;;;;;;;10.34;59.73;97657.06;4936007;28;20332;-84
2023/04/18 00:53:26;;;;;;;9.75;5.70;;;;;;;10.41;59.36;97678.53;4916728;28;20449;-85
2023/04/18 00:55:51;;;;;;;9.55;6.32;;;;;;;10.32;59.25;97674.72;4954947;28;20224;-84
2023/04/18 00:58:17;;;;;;;6.78;5.28;;;;;;;10.18;59.45;97654.13;4938037;28;20366;-85
2023/04/18 01:00:42;;;;;;;8.68;5.38;;;;;;;10.26;59.12;97661.59;4953694;28;20261;-85
2023/04/18 01:03:09;;;;;;;10.50;6.03;;;;;;;10.25;58.76;97665.19;4948531;23;20218;-82
2023/04/18 01:05:35;;;;;;;7.13;5.47;;;;;;;10.19;59.22;97660.13;4937912;28;20633;-83
2023/04/18 01:08:00;;;;;;;8.13;5.88;;;;;;;10.20;58.46;97662.50;4945068;28;20203;-84
2023/04/18 01:10:26;;;;;;;6.03;4.93;;;;;;;10.14;58.82;97658.19;4963391;28;20212;-83
2023/04/18 01:13:18;;;;;;;7.57;6.15;;;;;;;10.29;58.79;97661.09;4956353;28;20386;-83
2023/04/18 01:15:48;;;;;;;8.60;5.97;;;;;;;10.14;58.95;97658.19;4933236;28;20289;-83
2023/04/18 01:18:16;;;;;;;9.15;6.50;;;;;;;10.05;58.67;97643.97;4971632;28;20260;-84
2023/04/18 01:20:47;;;;;;;7.07;6.05;;;;;;;10.17;58.79;97655.13;4955203;28;20208;-83
2023/04/18 01:23:13;;;;;;;7.93;6.68;;;;;;;9.96;58.22;97640.94;4966990;28;20357;-83
2023/04/18 01:25:39;;;;;;;11.73;6.57;;;;;;;9.99;58.34;97640.47;4970057;28;20326;-83
2023/04/18 01:28:05;;;;;;;8.45;6.43;;;;;;;10.03;58.51;97646.00;4968215;28;20192;-84
2023/04/18 01:30:32;;;;;;;9.68;6.63;;;;;;;10.00;58.24;97646.47;4959594;28;20256;-83
2023/04/18 01:32:57;;;;;;;8.88;6.47;;;;;;;9.92;58.38;97635.38;4976968;28;20222;-80
2023/04/18 01:35:22;;;;;;;9.20;6.53;;;;;;;9.87;58.47;97630.09;4975574;28;20240;-80
2023/04/18 01:37:48;;;;;;;8.15;6.68;;;;;;;9.85;58.28;97626.13;4961696;28;20723;-84
2023/04/18 01:40:13;;;;;;;9.05;6.88;;;;;;;9.83;58.84;97630.75;4961011;28;20237;-84
2023/04/18 01:42:39;;;;;;;10.23;6.95;;;;;;;9.70;58.35;97632.59;4956900;28;20194;-83
2023/04/18 01:45:05;;;;;;;12.23;7.00;;;;;;;9.74;58.29;97625.13;4974037;28;20829;-83
2023/04/18 01:47:31;;;;;;;9.40;6.65;;;;;;;9.71;58.44;97617.75;4963654;28;20404;-83
2023/04/18 01:49:56;;;;;;;10.40;6.72;;;;;;;9.72;58.37;97622.75;4953992;28;20497;-83
2023/04/18 01:52:21;;;;;;;10.07;7.00;;;;;;;9.62;58.56;97614.72;4957374;28;20270;-83
2023/04/18 01:54:47;;;;;;;10.13;6.93;;;;;;;9.67;57.76;97611.44;4957840;28;20187;-84
2023/04/18 01:57:12;;;;;;;10.68;7.15;;;;;;;9.59;58.45;97614.38;4942960;28;20200;-83
2023/04/18 01:59:37;;;;;;;10.77;7.80;;;;;;;9.59;58.27;97603.97;4955978;28;20211;-83
2023/04/18 02:02:02;;;;;;;10.50;7.10;;;;;;;9.70;57.95;97626.59;4935320;28;20648;-83
2023/04/18 02:04:28;;;;;;;11.82;7.82;;;;;;;9.53;58.22;97611.66;4958077;28;20358;-83
2023/04/18 02:06:53;;;;;;;12.77;7.53;;;;;;;9.51;58.35;97608.50;4932847;28;20165;-83
2023/04/18 02:09:19;;;;;;;12.27;7.40;;;;;;;9.44;58.18;97612.22;4972882;28;20207;-83
2023/04/18 02:11:44;;;;;;;11.32;8.00;;;;;;;9.45;58.56;97612.00;4958214;28;20129;-83
2023/04/18 02:14:09;;;;;;;11.52;7.97;;;;;;;9.28;58.75;97606.69;4960923;28;20182;-83
2023/04/18 02:16:35;;;;;;;11.73;7.75;;;;;;;9.19;59.00;97603.63;4936867;28;20617;-83
2023/04/18 02:19:03;;;;;;;12.77;7.97;;;;;;;9.26;58.77;97602.75;4962939;28;20207;-82
2023/04/18 02:21:29;;;;;;;10.13;7.63;;;;;;;9.18;58.68;97602.06;4971055;28;20288;-84
2023/04/18 02:23:54;;;;;;;9.77;7.15;;;;;;;9.22;58.70;97610.19;4943985;28;20248;-83
2023/04/18 02:26:20;;;;;;;12.63;8.73;;;;;;;9.19;58.63;97613.22;4967010;28;20353;-84
2023/04/18 02:28:45;;;;;;;10.65;7.45;;;;;;;9.26;58.38;97605.34;4959231;28;20262;-83
2023/04/18 02:31:13;;;;;;;12.60;8.90;;;;;;;9.36;58.38;97614.16;4956937;28;20329;-83
2023/04/18 02:33:43;;;;;;;13.52;8.90;;;;;;;9.50;57.64;97606.91;4959686;28;20262;-83
2023/04/18 02:36:09;;;;;;;17.38;8.82;;;;;;;9.17;58.30;97607.47;4962185;28;20203;-83
2023/04/18 02:38:34;;;;;;;10.68;7.85;;;;;;;9.41;58.00;97608.28;4963343;28;20173;-84
2023/04/18 02:40:59;;;;;;;14.27;8.38;;;;;;;9.36;57.82;97611.56;4947548;28;20278;-83
2023/04/18 02:43:25;;;;;;;12.38;8.73;;;;;;;9.16;57.96;97614.47;4965756;28;20553;-83
2023/04/18 02:45:50;;;;;;;13.65;8.85;;;;;;;9.23;57.84;97610.97;4947402;28;20238;-82
2023/04/18 02:48:15;;;;;;;13.73;9.63;;;;;;;9.13;57.74;97607.13;4948839;28;20190;-83
2023/04/18 02:50:41;;;;;;;17.67;9.75;;;;;;;9.25;58.39;97608.94;4982787;28;20172;-82
2023/04/18 02:53:06;;;;;;;11.55;8.77;;;;;;;9.18;58.00;97615.06;4947306;28;20191;-82
2023/04/18 02:55:31;;;;;;;16.25;9.55;;;;;;;9.16;58.18;97619.66;4949184;28;20184;-83
2023/04/18 02:57:57;;;;;;;12.00;8.75;;;;;;;9.14;58.42;97615.72;4965636;28;20388;-85
2023/04/18 03:00:22;;;;;;;12.45;9.52;;;;;;;9.15;57.84;97604.28;4963196;28;20203;-82
2023/04/18 03:02:48;;;;;;;13.60;9.95;;;;;;;9.28;57.86;97608.50;4955765;28;20237;-83
2023/04/18 03:05:13;;;;;;;12.05;8.80;;;;;;;9.22;57.58;97609.38;4945825;28;20201;-84
2023/04/18 03:07:39;;;;;;;14.90;9.07;;;;;;;9.26;58.03;97613.13;4969599;28;20170;-83
2023/04/18 03:10:04;;;;;;;14.15;9.48;;;;;;;9.02;57.94;97605.28;4980417;28;20084;-83
2023/04/18 03:12:30;;;;;;;14.48;10.20;;;;;;;9.10;57.93;97606.75;4965431;28;20195;-84
2023/04/18 03:14:55;;;;;;;13.35;9.77;;;;;;;9.14;57.78;97606.09;4965820;28;20280;-83
2023/04/18 03:17:20;;;;;;;16.85;10.10;;;;;;;9.18;57.33;97607.25;4983433;28;20214;-82
2023/04/18 03:19:46;;;;;;;15.15;9.65;;;;;;;9.10;57.55;97592.00;4985171;28;20309;-83
2023/04/18 03:22:12;;;;;;;14.23;9.10;;;;;;;9.20;57.63;97612.19;4965918;28;20130;-82
2023/04/18 03:24:37;;;;;;;12.98;9.45;;;;;;;9.19;57.32;97614.00;4936388;28;20226;-84
2023/04/18 03:27:03;;;;;;;12.63;9.25;;;;;;;9.16;57.07;97606.66;4978574;28;20293;-83
2023/04/18 03:29:28;;;;;;;12.80;9.43;;;;;;;9.30;57.01;97607.25;4961377;28;20663;-84
2023/04/18 03:31:53;;;;;;;11.32;8.57;;;;;;;9.23;57.09;97600.59;4942908;28;20262;-82
2023/04/18 03:34:19;;;;;;;14.30;9.82;;;;;;;9.12;57.37;97604.75;4978746;28;20687;-83
2023/04/18 03:36:44;;;;;;;14.65;9.05;;;;;;;9.20;57.30;97601.81;4974579;28;20121;-82
2023/04/18 03:39:10;;;;;;;12.65;9.20;;;;;;;9.27;57.29;97607.72;4965158;28;20308;-81
2023/04/18 03:41:35;;;;;;;15.52;9.98;;;;;;;9.34;56.96;97610.22;4961892;28;20271;-81
2023/04/18 03:44:00;;;;;;;13.80;9.35;;;;;;;9.33;57.34;97606.00;4961466;28;20104;-81
2023/04/18 03:46:26;;;;;;;14.48;8.88;;;;;;;9.26;57.23;97611.31;4946458;28;20207;-83
2023/04/18 03:48:51;;;;;;;15.13;10.30;;;;;;;9.30;56.93;97603.84;4975654;28;20229;-82
2023/04/18 03:51:16;;;;;;;14.50;9.95;;;;;;;9.42;56.57;97609.84;4962891;28;20195;-82
2023/04/18 03:53:42;;;;;;;16.55;9.88;;;;;;;9.57;56.70;97606.81;4982720;28;20236;-84
2023/04/18 03:56:07;;;;;;;15.07;9.43;;;;;;;9.38;56.67;97601.72;4940509;28;20187;-82
2023/04/18 03:58:32;;;;;;;13.38;9.00;;;;;;;9.53;56.51;97606.47;4968023;28;20218;-81
2023/04/18 04:00:59;;;;;;;12.85;9.48;;;;;;;9.52;56.26;97601.50;4972860;28;20678;-82
2023/04/18 04:03:26;;;;;;;13.93;9.10;;;;;;;9.50;56.37;97608.72;4966480;28;20252;-81
2023/04/18 04:05:52;;;;;;;16.50;8.82;;;;;;;9.33;57.13;97613.81;4959809;28;20258;-80
2023/04/18 04:08:17;;;;;;;14.35;10.07;;;;;;;9.35;56.77;97611.78;4957705;28;20721;-80
2023/04/18 04:10:43;;;;;;;13.82;10.05;;;;;;;9.35;57.83;97612.56;4941747;28;20308;-80
2023/04/18 04:13:08;;;;;;;14.07;9.05;;;;;;;9.69;56.51;97614.59;4972355;28;20186;-80
2023/04/18 04:15:36;;;;;;;15.90;9.80;;;;;;;9.74;56.78;97617.31;4941878;28;20192;-81
2023/04/18 04:18:01;;;;;;;15.65;9.75;;;;;;;9.56;56.96;97616.41;4954221;28;20726;-80
2023/04/18 04:20:27;;;;;;;14.07;9.90;;;;;;;9.33;57.81;97619.78;4958228;28;20164;-80
2023/04/18 04:22:52;;;;;;;13.00;9.80;;;;;;;9.45;57.26;97613.81;4943543;28;20175;-80
2023/04/18 04:25:18;;;;;;;17.25;10.93;;;;;;;9.23;57.99;97616.16;4955065;28;20265;-80
2023/04/18 04:27:43;;;;;;;17.02;11.95;;;;;;;9.37;58.03;97613.16;4951521;28;20303;-80
2023/04/18 04:30:09;;;;;;;18.88;11.35;;;;;;;9.09;59.26;97610.41;4958949;28;20670;-80
2023/04/18 04:32:35;;;;;;;16.85;10.45;;;;;;;9.30;58.85;97614.25;4956161;28;20180;-79
2023/04/18 04:35:00;;;;;;;17.13;11.10;;;;;;;9.34;58.61;97616.19;4941187;28;20370;-80
2023/04/18 04:37:26;;;;;;;16.58;10.88;;;;;;;9.41;58.70;97618.69;4973284;28;20188;-80
2023/04/18 04:39:52;;;;;;;17.45;11.25;;;;;;;9.42;58.69;97612.44;4951118;28;20704;-82
2023/04/18 04:42:18;;;;;;;19.05;11.60;;;;;;;9.54;58.48;97615.06;4965203;28;20172;-80
2023/04/18 04:44:45;;;;;;;15.80;11.32;;;;;;;9.44;58.75;97607.84;4954305;28;20214;-79
2023/04/18 04:47:10;;;;;;;16.75;11.15;;;;;;;9.55;58.33;97609.63;4938307;28;20272;-81
2023/04/18 04:49:36;;;;;;;17.08;11.65;;;;;;;9.59;58.74;97616.97;4960008;28;20175;-81
2023/04/18 04:52:01;;;;;;;16.88;11.20;;;;;;;9.32;58.93;97612.22;4957958;28;20243;-79
2023/04/18 04:54:27;;;;;;;18.58;12.05;;;;;;;9.37;59.51;97622.72;4936603;28;20690;-80
2023/04/18 04:56:52;;;;;;;16.55;11.15;;;;;;;9.36;59.39;97626.34;4958104;28;20203;-81
2023/04/18 04:59:18;;;;;;;16.23;12.07;;;;;;;9.55;58.88;97630.44;4958847;28;20282;-80
2023/04/18 05:01:43;;;;;;;17.75;11.93;;;;;;;9.17;59.92;97623.84;4953135;28;20354;-80
2023/04/18 05:04:08;;;;;;;19.50;12.43;;;;;;;9.40;59.22;97619.69;4960981;28;20628;-81
2023/04/18 05:06:34;;;;;;;17.92;11.60;;;;;;;9.47;59.65;97615.16;4958390;28;20191;-82
2023/04/18 05:08:59;;;;;;;19.08;12.05;;;;;;;9.53;58.95;97622.06;4939900;28;20338;-81
2023/04/18 05:11:25;;;;;;;18.10;12.35;;;;;;;9.12;60.08;97626.31;4953047;28;20202;-81
2023/04/18 05:13:50;;;;;;;18.90;12.43;;;;;;;9.55;59.41;97630.44;4955814;28;20244;-80
2023/04/18 05:16:16;;;;;;;18.83;13.07;;;;;;;9.66;58.91;97623.63;4944294;28;20648;-80
2023/04/18 05:18:42;;;;;;;22.15;14.02;;;;;;;9.94;58.39;97622.16;4973430;28;20370;-79
2023/04/18 05:21:07;;;;;;;14.68;11.05;;;;;;;9.39;59.34;97620.72;4953466;28;20194;-79
2023/04/18 05:23:35;;;;;;;24.63;14.05;;;;;;;9.74;58.68;97627.72;4950455;28;20385;-81
2023/04/18 05:26:02;;;;;;;20.98;13.90;;;;;;;9.57;59.25;97632.81;4928340;28;20243;-79
2023/04/18 05:28:27;;;;;;;20.95;12.63;;;;;;;9.68;59.18;97626.81;4939811;28;20632;-81
2023/04/18 05:30:59;;;;;;;22.90;13.88;;;;;;;9.81;59.17;97625.78;4961066;28;20178;-81
2023/04/18 05:33:29;;;;;;;19.73;12.70;;;;;;;9.40;59.31;97616.31;4951251;28;20709;-81
2023/04/18 05:35:55;;;;;;;17.10;11.88;;;;;;;9.59;59.29;97624.78;4952923;28;20222;-79
2023/04/18 05:38:20;;;;;;;18.08;11.88;;;;;;;9.77;59.02;97636.84;4977797;28;20639;-81
2023/04/18 05:40:45;;;;;;;17.08;10.82;;;;;;;9.68;59.26;97633.81;4961847;28;20190;-81
2023/04/18 05:43:11;;;;;;;20.85;12.90;;;;;;;9.61;59.19;97638.34;4941672;28;20189;-82
2023/04/18 05:45:36;;;;;;;19.33;12.88;;;;;;;9.61;58.90;97638.34;4977454;28;20191;-80
2023/04/18 05:48:02;;;;;;;19.75;12.73;;;;;;;9.83;58.49;97648.97;4963004;28;20707;-80
2023/04/18 05:50:27;;;;;;;15.95;10.73;;;;;;;10.01;58.09;97642.84;4967658;28;20275;-81
2023/04/18 05:52:52;;;;;;;17.00;12.48;;;;;;;9.46;59.60;97647.38;4971413;28;20228;-80
2023/04/18 05:55:18;;;;;;;19.33;12.30;;;;;;;9.57;58.97;97643.97;4948788;28;20280;-81
2023/04/18 05:57:43;;;;;;;15.00;11.13;;;;;;;9.72;58.91;97659.13;4975825;28;20341;-80
2023/04/18 06:00:10;;;;;;;17.25;11.68;;;;;;;9.41;58.70;97647.28;4942280;28;20249;-81
2023/04/18 06:02:36;;;;;;;17.35;11.30;;;;;;;9.47;58.96;97661.16;4952281;28;20200;-80
2023/04/18 06:05:01;;;;;;;15.20;10.75;;;;;;;9.70;58.65;97655.19;4975784;28;20203;-80
2023/04/18 06:07:26;;;;;;;16.77;11.70;;;;;;;9.40;58.79;97658.66;4938602;28;20378;-80
2023/04/18 06:09:52;;;;;;;20.55;11.95;;;;;;;9.57;59.13;97661.41;4939723;28;20203;-80
2023/04/18 06:12:18;;;;;;;18.10;11.60;;;;;;;9.69;58.52;97671.81;4967794;28;20427;-81
2023/04/18 06:14:43;;;;;;;17.67;11.55;;;;;;;9.51;58.48;97668.28;4943749;28;20183;-79
2023/04/18 06:17:11;;;;;;;16.05;11.02;;;;;;;9.62;58.55;97679.72;4944202;28;20240;-80
2023/04/18 06:19:38;;;;;;;16.55;10.93;;;;;;;9.80;58.42;97675.41;4931229;28;20285;-81
2023/04/18 06:22:03;;;;;;;18.70;11.02;;;;;;;9.52;58.52;97682.84;4941192;28;20267;-81
2023/04/18 06:24:29;;;;;;;18.00;11.40;;;;;;;9.38;59.34;97682.28;4958088;28;20755;-80
2023/04/18 06:26:56;;;;;;;18.60;11.52;;;;;;;9.46;59.50;97688.97;4957486;28;20244;-80
2023/04/18 06:29:22;;;;;;;17.73;11.98;;;;;;;9.45;59.40;97676.97;4934238;28;20246;-81
2023/04/18 06:31:49;;;;;;;15.75;11.00;;;;;;;9.77;58.67;97679.28;4959945;28;20198;-81
2023/04/18 06:34:15;;;;;;;16.88;10.90;;;;;;;9.92;58.25;97691.81;4944476;28;20195;-79
2023/04/18 06:36:41;;;;;;;16.00;10.77;;;;;;;10.03;58.32;97690.22;4969993;28;20211;-81
2023/04/18 06:39:06;;;;;;;14.82;10.48;;;;;;;9.89;58.11;97694.88;4956052;28;20266;-79
2023/04/18 06:41:32;;;;;;;16.95;11.07;;;;;;;9.99;57.79;97681.28;4962231;28;20195;-81
2023/04/18 06:43:57;;;;;;;15.68;10.63;;;;;;;10.12;57.96;97671.44;4965527;28;20196;-80
2023/04/18 06:46:22;;;;;;;18.27;10.85;;;;;;;10.14;57.84;97684.22;4946449;28;20182;-80
2023/04/18 06:48:48;;;;;;;17.17;11.23;;;;;;;10.19;57.21;97675.72;4968675;28;20160;-82
2023/04/18 06:51:14;;;;;;;13.85;10.15;;;;;;;9.91;57.67;97680.63;4943389;28;20276;-78
2023/04/18 06:53:40;;;;;;;13.80;10.25;;;;;;;10.07;58.05;97688.75;4949548;28;20200;-82
2023/04/18 06:56:06;;;;;;;16.27;11.07;;;;;;;10.33;57.57;97692.69;4950130;28;20615;-82
2023/04/18 06:58:31;;;;;;;15.35;10.02;;;;;;;10.37;57.12;97682.63;4979844;23;20184;-80
2023/04/18 07:00:56;;;;;;;15.35;10.85;;;;;;;10.47;57.62;97686.22;4950382;28;20184;-81
2023/04/18 07:03:22;;;;;;;14.88;11.18;;;;;;;10.53;57.12;97696.75;5033000;23;20300;-80
2023/04/18 07:05:49;;;;;;;13.68;9.48;;;;;;;10.21;57.50;97684.09;4944456;28;20243;-83
2023/04/18 07:08:14;;;;;;;14.73;9.65;;;;;;;10.16;57.39;97702.19;4963007;28;20624;-80
2023/04/18 07:10:40;;;;;;;14.93;9.93;;;;;;;10.37;57.33;97699.03;4958946;28;20207;-80
2023/04/18 07:13:05;;;;;;;15.13;10.00;;;;;;;10.44;57.53;97691.09;4962910;28;20191;-80
2023/04/18 07:15:33;;;;;;;14.95;9.82;;;;;;;10.34;57.83;97691.69;4962400;28;20187;-79
2023/04/18 07:17:58;;;;;;;14.13;9.35;;;;;;;10.58;57.07;97695.03;5005413;28;20221;-81
2023/04/18 07:20:24;;;;;;;15.70;11.15;;;;;;;10.40;57.58;97689.97;4966985;28;20228;-78
2023/04/18 07:22:49;;;;;;;11.98;9.15;;;;;;;10.60;57.13;97702.59;4959513;28;20205;-79
2023/04/18 07:25:14;;;;;;;14.27;9.40;;;;;;;10.35;57.84;97692.47;4952538;28;21251;-80
2023/04/18 07:27:40;;;;;;;15.40;9.65;;;;;;;10.57;57.50;97684.84;4949286;28;20538;-80
2023/04/18 07:30:06;;;;;;;15.90;10.02;;;;;;;10.97;57.06;97690.00;4957598;28;20160;-81
2023/04/18 07:32:31;;;;;;;15.02;9.07;;;;;;;11.03;56.20;97685.66;4941010;28;20294;-80
2023/04/18 07:34:58;;;;;;;12.70;9.57;;;;;;;11.34;55.05;97692.19;4960102;28;20282;-81
2023/04/18 07:37:23;;;;;;;12.38;8.68;;;;;;;11.00;55.39;97699.97;4958520;28;20199;-79
2023/04/18 07:39:50;;;;;;;13.90;9.70;;;;;;;11.27;55.10;97699.38;4969292;28;20172;-76
2023/04/18 07:42:16;;;;;;;13.07;9.73;;;;;;;11.21;55.44;97702.94;4947183;28;20165;-79
2023/04/18 07:44:42;;;;;;;13.57;9.27;;;;;;;10.98;56.16;97691.56;4973727;28;20206;-78
2023/04/18 07:47:09;;;;;;;13.40;9.48;;;;;;;11.11;56.16;97697.53;4941712;28;20172;-78
2023/04/18 07:49:34;;;;;;;13.90;9.60;;;;;;;11.43;54.97;97696.00;4950704;28;20168;-79
2023/04/18 07:52:00;;;;;;;14.68;9.57;;;;;;;11.06;55.94;97691.19;4949986;28;20219;-80
2023/04/18 07:54:25;;;;;;;14.45;9.93;;;;;;;11.20;55.22;97701.34;4951854;28;20278;-77
2023/04/18 07:56:50;;;;;;;17.48;10.90;;;;;;;11.19;56.06;97700.56;4935532;28;20191;-77
2023/04/18 07:59:16;;;;;;;13.63;9.43;;;;;;;11.33;55.90;97695.81;4927664;28;20194;-78
2023/04/18 08:01:41;;;;;;;15.25;9.18;;;;;;;11.21;55.52;97697.72;4937113;28;20282;-79
2023/04/18 08:04:08;;;;;;;17.60;10.68;;;;;;;11.17;56.06;97707.00;4922794;28;1355980;-79
2023/04/18 08:06:34;;;;;;;14.45;10.05;;;;;;;11.02;56.55;97716.16;4945844;28;20276;-79
2023/04/18 08:09:03;;;;;;;15.43;9.77;;;;;;;11.12;56.55;97712.94;4949982;28;20429;-81
2023/04/18 08:11:29;;;;;;;14.57;9.95;;;;;;;11.03;56.72;97717.72;4956765;28;20222;-80
2023/04/18 08:13:54;;;;;;;15.55;10.13;;;;;;;11.00;56.79;97722.59;4981256;28;20037;-80
2023/04/18 08:16:20;;;;;;;14.38;9.70;;;;;;;10.84;56.85;97714.50;4947563;28;20052;-81
2023/04/18 08:18:45;;;;;;;16.38;9.73;;;;;;;11.15;56.43;97724.72;4939909;28;20184;-80
2023/04/18 08:21:11;;;;;;;15.93;10.68;;;;;;;10.97;56.51;97721.28;4942079;28;20252;-78
2023/04/18 08:23:36;;;;;;;21.35;12.18;;;;;;;10.71;57.36;97727.84;4975023;28;20187;-79
2023/04/18 08:26:01;;;;;;;17.50;11.27;;;;;;;10.79;58.30;97721.44;4974780;28;20683;-79
2023/04/18 08:28:27;;;;;;;16.25;11.38;;;;;;;11.01;57.25;97732.03;4958775;28;20242;-78
2023/04/18 08:30:54;;;;;;;16.90;10.65;;;;;;;10.75;57.37;97733.38;4972069;28;20206;-78
2023/04/18 08:33:21;;;;;;;19.35;11.73;;;;;;;10.64;57.82;97735.78;4948043;28;20173;-82
2023/04/18 08:35:46;;;;;;;17.77;11.18;;;;;;;10.23;58.91;97732.31;4931172;28;20713;-79
2023/04/18 08:38:12;;;;;;;20.98;12.27;;;;;;;10.15;59.32;97737.06;4943057;28;20246;-80
2023/04/18 08:40:37;;;;;;;23.65;14.45;;;;;;;9.90;60.08;97741.47;4949825;28;20176;-80
2023/04/18 08:43:08;;;;;;;39.95;20.08;;;;;;;10.17;59.71;97738.41;4929024;28;20202;-81
2023/04/18 08:45:33;;;;;;;20.77;12.85;;;;;;;10.61;58.73;97740.66;4951306;28;20190;-78
2023/04/18 08:48:00;;;;;;;21.50;12.48;;;;;;;10.55;58.26;97737.13;4955258;28;20267;-79
2023/04/18 08:50:26;;;;;;;18.25;11.93;;;;;;;10.30;59.00;97740.78;4940634;28;20029;-79
2023/04/18 08:52:53;;;;;;;28.95;16.55;;;;;;;10.34;58.93;97748.16;4956277;28;20037;-79
2023/04/18 08:55:21;;;;;;;17.65;11.80;;;;;;;10.56;58.61;97749.16;4955505;28;20211;-80
2023/04/18 08:57:46;;;;;;;18.95;11.27;;;;;;;10.58;58.66;97751.53;4951415;28;20203;-78
2023/04/18 09:00:12;;;;;;;19.77;12.15;;;;;;;10.61;58.60;97751.06;4954793;28;20580;-79
2023/04/18 09:02:43;;;;;;;18.88;11.90;;;;;;;10.80;58.19;97755.09;4936522;28;20187;-80
2023/04/18 09:05:18;;;;;;;17.60;12.45;;;;;;;10.92;58.12;97752.44;4939968;28;20318;-79
2023/04/18 09:07:44;;;;;;;21.00;13.30;;;;;;;10.56;58.15;97758.78;4960353;28;20220;-79
2023/04/18 09:10:11;;;;;;;18.75;11.82;;;;;;;10.81;58.46;97742.84;4958945;28;20713;-79
2023/04/18 09:12:50;;;;;;;17.45;12.20;;;;;;;10.91;58.14;97752.69;4971836;28;20250;-79
2023/04/18 09:15:19;;;;;;;19.13;11.60;;;;;;;10.98;57.89;97743.69;4941400;28;20194;-79
2023/04/18 09:17:51;;;;;;;18.02;11.68;;;;;;;11.02;57.59;97746.66;4937902;28;20610;-80
2023/04/18 09:20:29;;;;;;;19.38;12.40;;;;;;;11.14;57.91;97749.97;4926241;28;20202;-79
2023/04/18 09:23:22;;;;;;;16.02;10.85;;;;;;;11.15;57.41;97745.56;4958814;28;20237;-80
2023/04/18 09:25:49;;;;;;;19.92;13.77;;;;;;;10.63;58.96;97738.59;4958913;28;20232;-79
2023/04/18 09:28:42;;;;;;;17.30;11.57;;;;;;;11.30;57.54;97738.00;4958236;28;20263;-78
2023/04/18 09:31:10;;;;;;;16.58;10.98;;;;;;;11.24;57.79;97738.94;4951983;28;20178;-79
2023/04/18 09:33:36;;;;;;;17.17;10.75;;;;;;;11.40;57.46;97740.78;4937806;28;20200;-80
2023/04/18 09:36:20;;;;;;;17.85;11.65;;;;;;;11.36;57.84;97752.72;4970064;28;20294;-79
2023/04/18 09:38:46;;;;;;;16.75;10.73;;;;;;;11.45;57.64;97742.69;4956623;28;20362;-79
2023/04/18 09:41:14;;;;;;;17.98;11.60;;;;;;;11.36;57.62;97744.91;4943410;28;20199;-78
2023/04/18 09:43:40;;;;;;;15.82;10.95;;;;;;;11.38;57.20;97747.28;4943014;28;20296;-78
2023/04/18 09:46:06;;;;;;;14.77;10.32;;;;;;;11.23;57.65;97745.97;4954939;28;20204;-79
2023/04/18 09:48:32;;;;;;;19.77;11.70;;;;;;;11.04;58.09;97734.94;4957036;28;20190;-79
2023/04/18 09:50:58;;;;;;;16.75;11.30;;;;;;;11.34;58.15;97746.16;4950636;28;20029;-79
2023/04/18 09:53:24;;;;;;;18.70;12.45;;;;;;;11.23;57.73;97745.97;4958965;28;20173;-79
2023/04/18 09:55:53;;;;;;;19.45;11.88;;;;;;;11.29;58.22;97744.22;4945347;28;20237;-80
2023/04/18 09:58:24;;;;;;;17.85;12.23;;;;;;;11.42;58.60;97749.16;4941235;28;20214;-79
2023/04/18 10:00:52;;;;;;;19.48;11.32;;;;;;;11.35;58.42;97739.91;4932442;28;20287;-80
2023/04/18 10:03:18;;;;;;;18.48;11.30;;;;;;;11.36;58.01;97739.69;4954357;28;20200;-79
2023/04/18 10:05:47;;;;;;;18.77;12.25;;;;;;;11.59;57.71;97736.13;4933791;28;20223;-78
2023/04/18 10:08:12;;;;;;;18.23;11.30;;;;;;;11.72;57.78;97732.44;4932736;28;20587;-81
2023/04/18 10:10:38;;;;;;;18.80;12.23;;;;;;;11.88;57.21;97736.06;4939146;28;20281;-79
2023/04/18 10:13:05;;;;;;;16.90;10.85;;;;;;;11.90;56.84;97743.66;4943811;28;20207;-79
2023/04/18 10:15:31;;;;;;;17.92;11.80;;;;;;;11.48;58.18;97744.03;4947686;28;20360;-79
2023/04/18 10:18:00;;;;;;;22.30;13.88;;;;;;;11.09;58.80;97741.25;4970114;28;20228;-78
2023/04/18 10:20:30;;;;;;;25.90;17.33;;;;;;;11.24;58.59;97749.34;4957803;28;20602;-80
2023/04/18 10:22:58;;;;;;;21.42;12.80;;;;;;;11.66;58.28;97735.97;4965000;28;20173;-80
2023/04/18 10:25:32;;;;;;;20.42;12.65;;;;;;;11.67;58.03;97740.19;4967833;28;20091;-80
2023/04/18 10:28:00;;;;;;;19.48;12.18;;;;;;;11.92;57.68;97733.78;4983452;28;20191;-80
2023/04/18 10:30:52;;;;;;;18.05;12.38;;;;;;;11.85;57.17;97722.69;4974236;28;20196;-78
2023/04/18 10:33:26;;;;;;;17.08;11.32;;;;;;;11.61;58.65;97731.47;4972237;28;20244;-79
2023/04/18 10:36:16;;;;;;;15.65;11.05;;;;;;;11.88;57.99;97732.66;4956825;28;20361;-79
2023/04/18 10:38:48;;;;;;;16.45;11.25;;;;;;;12.06;57.49;97737.63;4979633;28;20698;-78
2023/04/18 10:41:21;;;;;;;16.70;11.40;;;;;;;11.74;58.13;97727.75;4957879;28;20306;-79
2023/04/18 10:44:16;;;;;;;23.02;13.40;;;;;;;11.27;59.81;97737.69;4971983;28;20244;-79
2023/04/18 10:46:51;;;;;;;17.77;12.25;;;;;;;11.50;59.38;97736.75;4976009;28;20176;-78
2023/04/18 10:49:30;;;;;;;21.60;11.93;;;;;;;11.80;58.38;97721.56;4971885;28;20290;-78
2023/04/18 10:51:57;;;;;;;18.30;11.77;;;;;;;11.79;58.78;97745.31;4956849;28;20269;-78
2023/04/18 10:54:38;;;;;;;16.67;11.75;;;;;;;12.03;58.26;97721.66;4960702;28;20214;-79
2023/04/18 10:57:04;;;;;;;19.75;11.85;;;;;;;11.60;58.61;97721.28;4958337;28;20273;-80
2023/04/18 10:59:31;;;;;;;19.60;12.32;;;;;;;12.21;58.08;97723.22;4942141;28;20259;-79
2023/04/18 11:02:04;;;;;;;18.23;11.77;;;;;;;12.21;57.49;97718.00;4967856;28;20167;-80
2023/04/18 11:04:29;;;;;;;16.95;11.07;;;;;;;12.58;56.90;97727.84;4947981;28;20169;-79
2023/04/18 11:06:56;;;;;;;16.05;11.35;;;;;;;12.39;56.89;97715.13;4977441;28;20264;-80
2023/04/18 11:09:22;;;;;;;16.42;11.43;;;;;;;12.61;56.54;97711.69;4959952;28;20228;-79
2023/04/18 11:12:02;;;;;;;16.42;11.18;;;;;;;12.90;56.58;97710.47;4945881;28;20184;-80
2023/04/18 11:14:41;;;;;;;17.40;12.23;;;;;;;12.81;56.90;97705.94;4948095;28;20267;-81
2023/04/18 11:17:31;;;;;;;15.63;10.90;;;;;;;12.76;55.97;97711.09;4966285;28;20336;-80
2023/04/18 11:20:23;;;;;;;14.55;10.13;;;;;;;12.48;56.71;97711.03;4951414;28;20187;-78
2023/04/18 11:22:50;;;;;;;15.38;10.68;;;;;;;12.35;57.07;97716.63;4963653;28;20196;-78
2023/04/18 11:25:17;;;;;;;17.67;12.38;;;;;;;12.35;57.51;97706.19;4957648;28;20183;-80
2023/04/18 11:27:44;;;;;;;17.50;11.40;;;;;;;12.15;57.60;97707.50;4958909;28;20779;-79